Time;durP1;ratioP1;P1;durP2;ratioP2;P2;SDS_P1;SDS_P2;PMS_P1;PMS_P2;Temp;Humidity;BMP_temperature;BMP_pressure;BME280_temperature;BME280_humidity;BME280_pressure;Samples;Min_cycle;Max_cycle;Signal;HPM_P1;HPM_P2
2023/02/15 15:14:07;;;;;;;20.90;13.50;;;;;;;5.36;56.66;96838.14;104531;1305;558998;-66
2023/02/15 15:16:35;;;;;;;19.80;12.00;;;;;;;4.78;57.66;96841.55;106039;1286;157075;-66
2023/02/15 15:19:09;;;;;;;18.80;11.70;;;;;;;4.45;59.08;96840.58;106244;1286;24242;-66
2023/02/15 15:21:46;;;;;;;20.80;12.60;;;;;;;4.22;59.83;96839.98;106145;1286;25325;-67
2023/02/15 15:24:46;;;;;;;21.00;11.70;;;;;;;4.00;60.65;96838.17;106673;1275;25504;-66
2023/02/15 15:27:43;;;;;;;18.10;10.40;;;;;;;3.79;60.26;96844.92;106638;1275;25338;-66
2023/02/15 15:30:14;;;;;;;20.40;11.00;;;;;;;3.64;61.58;96843.80;107093;1275;22574;-67
2023/02/15 15:32:58;;;;;;;18.60;11.60;;;;;;;3.43;61.64;96847.73;107070;1275;22530;-68
2023/02/15 15:35:47;;;;;;;19.50;11.60;;;;;;;3.32;62.02;96851.91;107040;1275;24370;-66
2023/02/15 15:38:40;;;;;;;17.90;10.00;;;;;;;3.18;62.44;96853.23;106992;1275;22537;-68
2023/02/15 15:41:17;;;;;;;21.90;11.60;;;;;;;2.96;64.21;96855.70;107077;1275;24239;-68
2023/02/15 15:44:10;;;;;;;19.90;11.20;;;;;;;2.83;63.46;96858.08;107044;1275;24221;-68
2023/02/15 15:47:33;;;;;;;19.70;12.00;;;;;;;2.75;62.99;96858.52;107058;1273;22729;-68
2023/02/15 15:50:11;;;;;;;22.20;12.50;;;;;;;2.66;63.10;96862.25;106728;1280;25349;-68
2023/02/15 15:52:46;;;;;;;21.40;12.10;;;;;;;2.52;63.46;96864.40;106698;1280;22546;-68
2023/02/15 15:55:21;;;;;;;25.50;14.10;;;;;;;2.40;64.16;96864.84;107011;1275;22522;-68
2023/02/15 15:57:57;;;;;;;25.40;14.50;;;;;;;2.30;63.78;96861.73;106741;1275;22641;-68
2023/02/15 16:00:46;;;;;;;22.20;12.30;;;;;;;2.20;65.53;96863.46;107080;1275;25312;-68
2023/02/15 16:03:35;;;;;;;25.00;12.80;;;;;;;2.08;65.87;96867.94;107105;1275;24346;-68
2023/02/15 16:06:03;;;;;;;23.90;13.20;;;;;;;1.90;67.26;96876.34;107102;1275;22595;-68
2023/02/15 16:08:38;;;;;;;26.20;14.70;;;;;;;1.82;66.45;96878.46;107135;1275;25259;-68
2023/02/15 16:11:15;;;;;;;25.70;13.80;;;;;;;1.76;65.90;96881.73;107065;1275;24189;-68
2023/02/15 16:13:44;;;;;;;25.00;13.90;;;;;;;1.70;66.58;96883.78;107080;1275;22650;-68
2023/02/15 16:16:19;;;;;;;22.50;12.90;;;;;;;1.64;66.45;96881.98;106962;1275;25080;-68
2023/02/15 16:18:48;;;;;;;26.80;14.30;;;;;;;1.60;66.13;96888.60;107071;1275;25399;-68
2023/02/15 16:21:23;;;;;;;23.40;14.10;;;;;;;1.57;65.74;96888.82;107060;1275;24242;-68
2023/02/15 16:24:25;;;;;;;27.90;14.30;;;;;;;1.53;65.70;96890.09;106831;1275;24365;-68
2023/02/15 16:27:19;;;;;;;22.30;12.00;;;;;;;1.49;65.87;96888.91;107120;1275;25387;-68
2023/02/15 16:29:48;;;;;;;21.50;11.60;;;;;;;1.44;66.47;96884.91;106999;1275;25274;-68
2023/02/15 16:32:21;;;;;;;22.40;12.40;;;;;;;1.36;67.44;96887.52;107046;1275;22635;-68
2023/02/15 16:34:58;;;;;;;23.50;13.50;;;;;;;1.27;66.87;96885.65;106888;1268;22521;-68
2023/02/15 16:37:31;;;;;;;24.30;13.50;;;;;;;1.22;66.55;96890.50;107076;1275;22574;-68
2023/02/15 16:40:00;;;;;;;23.70;12.40;;;;;;;1.17;67.22;96893.75;107023;1275;22651;-68
2023/02/15 16:42:28;;;;;;;24.20;13.30;;;;;;;1.05;67.34;96894.66;107079;1275;22632;-68
2023/02/15 16:45:13;;;;;;;30.40;17.50;;;;;;;0.96;66.99;96897.80;107085;1275;22533;-68
2023/02/15 16:47:45;;;;;;;23.70;13.00;;;;;;;0.90;67.55;96895.45;106843;1275;25610;-68
2023/02/15 16:50:34;;;;;;;28.90;15.90;;;;;;;0.83;67.21;96898.48;106755;1275;26619;-68
2023/02/15 16:53:06;;;;;;;41.90;21.20;;;;;;;0.73;67.58;96898.61;106627;1275;24370;-68
2023/02/15 16:55:38;;;;;;;46.60;26.40;;;;;;;0.60;68.76;96902.42;107105;1275;24279;-68
2023/02/15 16:58:13;;;;;;;30.00;15.50;;;;;;;0.48;69.32;96902.44;106968;1274;24236;-68
2023/02/15 17:00:42;;;;;;;21.40;11.40;;;;;;;0.35;70.85;96903.61;107028;1275;22757;-68
2023/02/15 17:03:13;;;;;;;28.80;15.30;;;;;;;0.25;69.93;96908.55;107160;1275;24228;-68
2023/02/15 17:05:47;;;;;;;21.90;11.80;;;;;;;0.11;71.04;96911.64;107101;1275;24170;-68
2023/02/15 17:08:28;;;;;;;22.20;12.10;;;;;;;0.04;71.72;96912.20;106889;1275;22566;-68
2023/02/15 17:10:59;;;;;;;20.50;10.60;;;;;;;-0.09;73.43;96918.91;106747;1275;22559;-68
2023/02/15 17:13:29;;;;;;;22.60;11.10;;;;;;;-0.19;73.74;96920.02;106726;1275;25275;-68
2023/02/15 17:16:00;;;;;;;29.20;13.20;;;;;;;-0.26;72.98;96920.40;106840;1275;22647;-68
2023/02/15 17:18:58;;;;;;;27.40;12.80;;;;;;;-0.19;73.31;96920.02;106754;1275;22539;-69
2023/02/15 17:21:32;;;;;;;27.10;13.60;;;;;;;-0.20;73.24;96920.81;107064;1275;24270;-68
2023/02/15 17:24:03;;;;;;;28.90;14.40;;;;;;;-0.26;74.15;96917.63;107113;1275;24445;-68
2023/02/15 17:26:37;;;;;;;23.80;12.30;;;;;;;-0.20;73.95;96918.94;107022;1275;25352;-68
2023/02/15 17:29:35;;;;;;;;;;;;;;;-0.15;73.49;96917.58;107081;1275;24218;-68
2023/02/15 17:32:06;;;;;;;24.90;13.20;;;;;;;-0.15;73.95;96919.50;106919;1275;24407;-68
2023/02/15 17:34:46;;;;;;;24.50;12.90;;;;;;;-0.24;73.62;96924.29;106826;1275;25216;-68
2023/02/15 17:37:25;;;;;;;27.00;12.90;;;;;;;-0.32;73.42;96927.01;106780;1275;22579;-68
2023/02/15 17:39:54;;;;;;;27.30;14.30;;;;;;;-0.46;73.55;96924.52;106702;1275;25278;-68
2023/02/15 17:42:22;;;;;;;26.40;13.00;;;;;;;-0.40;74.19;96924.25;106763;1275;24203;-68
2023/02/15 17:44:51;;;;;;;28.20;14.10;;;;;;;-0.34;74.21;96926.95;106652;1275;24199;-68
2023/02/15 17:47:22;;;;;;;26.70;14.00;;;;;;;-0.32;74.04;96931.55;106655;1275;24279;-68
2023/02/15 17:49:52;;;;;;;29.80;13.90;;;;;;;-0.38;73.12;96929.34;106792;1275;22526;-68
2023/02/15 17:52:20;;;;;;;24.00;13.50;;;;;;;-0.31;73.65;96932.96;106693;1273;22534;-68
2023/02/15 17:57:37;;;;;;;27.80;15.20;;;;;;;-0.23;73.11;96938.32;106670;1275;25343;-68
2023/02/15 18:14:08;;;;;;;23.10;12.10;;;;;;;-0.72;73.47;96935.76;107006;1275;22542;-68
2023/02/15 18:16:41;;;;;;;23.80;11.60;;;;;;;-0.76;73.45;96937.09;107075;1275;25268;-68
2023/02/15 18:19:31;;;;;;;27.90;12.70;;;;;;;-0.79;73.62;96935.06;106821;1275;22758;-68
2023/02/15 18:22:00;;;;;;;26.60;12.60;;;;;;;-0.78;73.99;96930.32;106844;1264;22531;-68
2023/02/15 18:24:31;;;;;;;23.20;12.10;;;;;;;-0.82;74.20;96931.13;107051;1275;22534;-68
2023/02/15 18:27:00;;;;;;;30.50;14.00;;;;;;;-0.85;73.70;96933.77;106795;1267;22517;-68
2023/02/15 18:29:30;;;;;;;29.60;13.60;;;;;;;-0.85;73.31;96931.19;106694;1275;22526;-68
2023/02/15 18:32:02;;;;;;;24.30;11.90;;;;;;;-0.86;73.26;96937.89;106835;1275;25334;-68
2023/02/15 18:34:37;;;;;;;22.00;11.10;;;;;;;-0.94;75.00;96933.20;107106;1275;24196;-68
2023/02/15 18:37:11;;;;;;;22.60;11.30;;;;;;;-1.07;75.74;96936.52;107047;1275;22534;-68
2023/02/15 18:39:45;;;;;;;22.40;11.30;;;;;;;-1.17;75.59;96937.98;107099;1275;24356;-68
2023/02/15 18:42:33;;;;;;;27.00;13.50;;;;;;;-1.23;75.23;96940.61;106697;1275;24343;-68
2023/02/15 18:45:15;;;;;;;24.80;12.60;;;;;;;-1.28;74.54;96942.98;106759;1275;23880;-68
2023/02/15 18:47:47;;;;;;;28.10;13.30;;;;;;;-1.26;74.52;96940.64;106809;1273;22523;-68
2023/02/15 18:50:18;;;;;;;22.60;11.50;;;;;;;-1.27;75.37;96940.39;106764;1275;23932;-68
2023/02/15 18:52:51;;;;;;;26.10;12.00;;;;;;;-1.37;76.02;96943.76;106812;1275;25332;-68
2023/02/15 18:55:23;;;;;;;24.10;13.30;;;;;;;-1.43;76.55;96941.70;106881;1275;24339;-68
2023/02/15 18:57:54;;;;;;;22.70;11.80;;;;;;;-1.46;75.86;96940.04;106663;1275;24386;-68
2023/02/15 19:00:29;;;;;;;21.70;11.00;;;;;;;-1.48;76.64;96944.73;106637;1275;24094;-68
2023/02/15 19:02:58;;;;;;;24.30;12.70;;;;;;;-1.54;76.11;96947.20;106725;1275;25386;-68
2023/02/15 19:05:32;;;;;;;26.20;13.40;;;;;;;-1.60;76.26;96943.61;106761;1263;22572;-68
2023/02/15 19:08:03;;;;;;;24.30;12.90;;;;;;;-1.62;75.91;96942.16;106682;1275;22532;-68
2023/02/15 19:10:35;;;;;;;23.80;11.30;;;;;;;-1.63;76.15;96940.22;106587;1275;24257;-68
2023/02/15 19:13:08;;;;;;;21.30;10.60;;;;;;;-1.71;77.84;96944.80;106693;1275;22537;-68
2023/02/15 19:15:37;;;;;;;19.40;10.50;;;;;;;-1.80;77.76;96948.83;106703;1275;26508;-68
2023/02/15 19:18:08;;;;;;;23.00;12.10;;;;;;;-1.91;77.69;96949.47;106773;1275;26751;-68
2023/02/15 19:20:46;;;;;;;25.20;12.40;;;;;;;-1.90;77.15;96951.95;106637;1275;22714;-68
2023/02/15 19:23:20;;;;;;;27.50;12.30;;;;;;;-1.83;77.34;96945.73;106668;1275;22531;-68
2023/02/15 19:25:51;;;;;;;27.50;13.80;;;;;;;-1.88;76.75;96949.31;106775;1275;24327;-68
2023/02/15 19:28:31;;;;;;;23.70;12.00;;;;;;;-1.85;76.59;96948.09;106727;1275;22782;-68
2023/02/15 19:30:59;;;;;;;23.10;11.60;;;;;;;-1.85;76.95;96939.98;106664;1275;26619;-68
2023/02/15 19:33:28;;;;;;;20.50;10.50;;;;;;;-1.86;76.40;96943.89;106719;1275;25343;-68
2023/02/15 19:35:59;;;;;;;23.20;12.10;;;;;;;-1.86;76.74;96940.24;106658;1275;22532;-68
2023/02/15 19:38:31;;;;;;;19.80;10.80;;;;;;;-1.80;77.13;96938.48;106654;1275;22539;-68
2023/02/15 19:41:06;;;;;;;20.70;10.40;;;;;;;-1.84;76.83;96942.06;106800;1275;25450;-68
2023/02/15 19:43:35;;;;;;;24.60;11.20;;;;;;;-1.82;77.82;96941.33;106678;1275;22633;-68
2023/02/15 19:46:03;;;;;;;21.90;12.00;;;;;;;-1.88;77.73;96937.89;106744;1275;25224;-68
2023/02/15 19:48:32;;;;;;;23.80;12.30;;;;;;;-1.94;78.28;96937.09;106677;1275;24403;-68
2023/02/15 19:51:02;;;;;;;21.80;11.60;;;;;;;-1.93;77.97;96935.93;106774;1275;25492;-68
2023/02/15 19:53:30;;;;;;;21.00;11.40;;;;;;;-1.86;77.80;96938.02;106706;1275;22534;-68
2023/02/15 19:55:58;;;;;;;20.20;11.90;;;;;;;-1.76;77.60;96935.25;106728;1275;22680;-68
2023/02/15 19:58:27;;;;;;;24.80;12.30;;;;;;;-1.67;77.68;96936.21;106731;1275;24387;-68
2023/02/15 20:00:55;;;;;;;21.80;11.80;;;;;;;-1.59;77.36;96935.05;106720;1275;25220;-68
2023/02/15 20:03:23;;;;;;;20.90;11.80;;;;;;;-1.64;76.75;96933.10;106642;1275;24304;-68
2023/02/15 20:05:54;;;;;;;24.30;12.10;;;;;;;-1.67;76.64;96931.17;106747;1275;22831;-68
2023/02/15 20:08:23;;;;;;;17.50;9.60;;;;;;;-1.66;76.70;96929.71;106777;1275;22760;-68
2023/02/15 20:10:51;;;;;;;20.90;10.80;;;;;;;-1.69;76.03;96929.02;106827;1273;22747;-69
2023/02/15 20:13:20;;;;;;;15.40;8.70;;;;;;;-1.83;76.37;96930.77;106771;1263;22635;-68
2023/02/15 20:15:49;;;;;;;17.30;9.80;;;;;;;-2.05;76.21;96939.14;106637;1275;23886;-68
2023/02/15 20:18:17;;;;;;;20.60;9.60;;;;;;;-2.10;76.78;96934.20;106728;1275;22566;-68
2023/02/15 20:20:51;;;;;;;14.60;8.00;;;;;;;-2.18;76.61;96931.16;106673;1275;25294;-68
2023/02/15 20:23:27;;;;;;;18.20;8.70;;;;;;;-2.35;76.51;96934.98;106688;1275;22547;-68
2023/02/15 20:26:00;;;;;;;16.70;8.90;;;;;;;-2.42;76.64;96932.76;106762;1275;24223;-68
2023/02/15 20:28:30;;;;;;;24.70;10.20;;;;;;;-2.45;76.97;96939.83;106693;1275;23916;-68
2023/02/15 20:30:59;;;;;;;23.20;11.40;;;;;;;-2.52;77.22;96937.01;106760;1275;22531;-68
2023/02/15 20:33:27;;;;;;;20.90;10.60;;;;;;;-2.52;76.94;96938.19;106718;1275;24305;-69
2023/02/15 20:35:57;;;;;;;22.80;11.20;;;;;;;-2.54;77.22;96932.09;106822;1275;22535;-69
2023/02/15 20:38:28;;;;;;;21.90;11.30;;;;;;;-2.60;77.20;96931.74;106622;1275;22527;-68
2023/02/15 20:44:24;;;;;;;18.80;11.20;;;;;;;-2.72;78.80;96941.27;106259;1280;23061;-68
2023/02/15 20:46:55;;;;;;;21.70;9.90;;;;;;;-2.76;79.05;96935.90;106353;1280;25386;-68
2023/02/15 20:49:25;;;;;;;20.90;9.80;;;;;;;-2.80;79.19;96932.90;106591;1275;22520;-69
2023/02/15 20:51:55;;;;;;;19.30;9.80;;;;;;;-2.83;78.71;96933.96;106761;1275;22545;-68
2023/02/15 20:54:27;;;;;;;22.40;9.70;;;;;;;-2.88;78.66;96931.29;106701;1275;26669;-68
2023/02/15 20:56:56;;;;;;;15.80;8.40;;;;;;;-2.92;78.79;96930.23;106579;1275;24494;-68
2023/02/15 20:59:27;;;;;;;16.30;8.30;;;;;;;-3.01;78.71;96931.25;106696;1275;22531;-68
2023/02/15 21:02:19;;;;;;;19.30;9.40;;;;;;;-3.16;79.54;96929.39;106719;1275;22646;-68
2023/02/15 21:04:48;;;;;;;22.00;10.70;;;;;;;-3.27;79.55;96929.14;106965;1275;22528;-68
2023/02/15 21:07:19;;;;;;;22.90;10.50;;;;;;;-3.21;79.32;96929.79;106677;1275;24269;-68
2023/02/15 21:09:47;;;;;;;26.60;12.60;;;;;;;-3.14;79.51;96932.98;106686;1275;22772;-66
2023/02/15 21:12:18;;;;;;;23.40;10.20;;;;;;;-3.09;79.50;96929.13;106531;1275;22523;-66
2023/02/15 21:14:47;;;;;;;23.00;11.30;;;;;;;-3.07;79.36;96932.00;106748;1275;22523;-66
2023/02/15 21:17:16;;;;;;;24.20;12.30;;;;;;;-2.98;79.56;96924.72;106726;1275;22531;-66
2023/02/15 21:19:45;;;;;;;21.00;10.20;;;;;;;-2.95;79.23;96929.87;106741;1275;24202;-66
2023/02/15 21:22:15;;;;;;;20.40;10.70;;;;;;;-2.89;79.47;96923.00;106514;1275;22570;-66
2023/02/15 21:24:49;;;;;;;28.00;11.60;;;;;;;-2.84;79.18;96919.27;106698;1275;23882;-66
2023/02/15 21:27:18;;;;;;;20.80;11.20;;;;;;;-2.87;79.11;96924.78;106644;1275;25415;-66
2023/02/15 21:29:46;;;;;;;26.00;12.10;;;;;;;-2.92;79.50;96924.55;106674;1275;24229;-66
2023/02/15 21:32:14;;;;;;;28.50;12.60;;;;;;;-2.92;79.93;96922.48;106575;1275;23876;-66
2023/02/15 21:34:43;;;;;;;25.20;12.50;;;;;;;-2.91;79.44;96925.26;106609;1275;22801;-66
2023/02/15 21:37:41;;;;;;;20.70;10.50;;;;;;;-2.95;79.36;96924.57;106680;1275;23088;-66
2023/02/15 21:40:12;;;;;;;24.70;11.50;;;;;;;-2.86;79.86;96922.27;106586;1275;22521;-68
2023/02/15 21:48:15;;;;;;;21.10;10.50;;;;;;;-2.69;79.10;96921.47;106709;1275;22634;-68
2023/02/15 21:53:34;;;;;;;19.70;9.20;;;;;;;-2.77;78.22;96920.52;106741;1275;25610;-66
2023/02/15 21:56:12;;;;;;;18.70;9.50;;;;;;;-2.85;78.45;96922.16;106687;1275;25554;-66
2023/02/15 21:58:40;;;;;;;18.40;9.00;;;;;;;-2.91;78.69;96920.45;106694;1275;25316;-68
2023/02/15 22:01:26;;;;;;;16.40;8.40;;;;;;;-3.02;78.21;96920.35;106689;1275;25482;-68
2023/02/15 22:03:56;;;;;;;17.80;8.90;;;;;;;-3.13;78.14;96919.75;106709;1275;22577;-66
2023/02/15 22:06:25;;;;;;;19.30;9.90;;;;;;;-3.17;78.04;96917.30;106739;1275;25396;-66
2023/02/15 22:08:53;;;;;;;17.80;9.90;;;;;;;-3.20;78.06;96915.97;106655;1275;22539;-65
2023/02/15 22:11:22;;;;;;;11.70;6.90;;;;;;;-3.24;78.56;96918.65;106721;1275;22556;-65
2023/02/15 22:13:50;;;;;;;12.50;6.50;;;;;;;-3.42;78.94;96921.09;106599;1275;24390;-66
2023/02/15 22:16:20;;;;;;;18.90;8.90;;;;;;;-3.61;78.79;96920.85;106731;1275;24251;-66
2023/02/15 22:18:49;;;;;;;17.10;9.10;;;;;;;-3.65;78.77;96922.00;106648;1275;24203;-66
2023/02/15 22:21:18;;;;;;;16.20;8.60;;;;;;;-3.66;78.85;96921.92;106598;1275;22787;-66
2023/02/15 22:23:46;;;;;;;16.70;9.00;;;;;;;-3.71;78.87;96919.29;106695;1275;22602;-66
2023/02/15 22:26:21;;;;;;;17.10;9.60;;;;;;;-3.75;78.77;96918.70;106547;1275;24268;-66
2023/02/15 22:28:50;;;;;;;19.20;9.30;;;;;;;-3.74;79.21;96919.98;106642;1275;22780;-66
2023/02/15 22:31:21;;;;;;;18.90;9.30;;;;;;;-3.74;79.76;96919.44;106635;1275;22524;-66
2023/02/15 22:33:50;;;;;;;19.30;9.90;;;;;;;-3.78;80.47;96917.15;106617;1275;25446;-66
2023/02/15 22:36:27;;;;;;;18.40;8.40;;;;;;;-3.82;80.52;96920.38;106701;1275;25621;-66
2023/02/15 22:38:56;;;;;;;18.30;9.40;;;;;;;-3.83;79.88;96916.86;106574;1275;22618;-66
2023/02/15 22:41:29;;;;;;;18.70;9.60;;;;;;;-3.83;79.76;96917.00;106650;1275;24258;-66
2023/02/15 22:43:58;;;;;;;21.90;10.20;;;;;;;-3.85;80.24;96914.65;106739;1275;24260;-66
2023/02/15 22:46:26;;;;;;;17.70;8.70;;;;;;;-3.89;79.72;96921.16;106687;1275;25460;-66
2023/02/15 22:48:54;;;;;;;17.70;9.00;;;;;;;-3.91;80.45;96921.70;106725;1275;22534;-66
2023/02/15 22:51:23;;;;;;;21.40;10.20;;;;;;;-3.95;80.06;96918.39;106608;1275;25554;-66
2023/02/15 22:53:52;;;;;;;19.70;10.10;;;;;;;-3.93;80.01;96918.34;106751;1261;22523;-66
2023/02/15 22:56:26;;;;;;;20.20;9.00;;;;;;;-3.92;79.86;96915.30;106719;1275;24049;-66
2023/02/15 22:59:04;;;;;;;;;;;;;;;-4.00;80.83;96918.81;106731;1275;22616;-66
2023/02/15 23:01:35;;;;;;;18.00;8.80;;;;;;;-4.04;80.22;96912.90;106598;1275;22797;-66
2023/02/15 23:04:04;;;;;;;22.10;10.40;;;;;;;-4.02;80.13;96911.48;106659;1265;22708;-66
2023/02/15 23:06:33;;;;;;;18.30;9.00;;;;;;;-4.02;79.91;96912.48;106634;1275;22528;-66
2023/02/15 23:09:02;;;;;;;16.90;8.90;;;;;;;-4.06;79.56;96907.23;106664;1275;25488;-66
2023/02/15 23:11:30;;;;;;;19.60;8.10;;;;;;;-4.09;80.66;96909.52;106726;1275;22814;-66
2023/02/15 23:13:58;;;;;;;15.60;8.50;;;;;;;-4.17;81.08;96909.20;106600;1275;25392;-66
2023/02/15 23:16:27;;;;;;;16.70;8.70;;;;;;;-4.22;81.82;96913.90;106748;1275;22595;-66
2023/02/15 23:18:55;;;;;;;20.00;10.00;;;;;;;-4.26;82.49;96915.02;106658;1275;22809;-66
2023/02/15 23:21:32;;;;;;;26.50;10.40;;;;;;;-4.31;81.70;96915.11;106690;1275;22623;-66
2023/02/15 23:24:25;;;;;;;23.70;11.00;;;;;;;-4.29;81.38;96912.94;106689;1275;24252;-66
2023/02/15 23:27:55;;;;;;;21.10;10.40;;;;;;;-4.23;81.17;96909.19;106713;1275;22561;-66
2023/02/15 23:29:42;;;;;;;22.30;10.10;;;;;;;-4.17;81.15;96904.94;106660;1272;22707;-67
2023/02/15 23:32:14;;;;;;;22.30;10.20;;;;;;;-4.15;81.37;96906.92;106631;1275;23150;-66
2023/02/15 23:34:43;;;;;;;16.50;8.90;;;;;;;-4.23;80.75;96906.42;106597;1275;24387;-66
2023/02/15 23:37:12;;;;;;;21.20;8.70;;;;;;;-4.35;80.84;96903.38;106601;1275;25585;-66
2023/02/15 23:42:30;;;;;;;19.80;10.10;;;;;;;-4.34;81.73;96900.27;106974;1275;22642;-67
2023/02/15 23:44:59;;;;;;;26.00;11.40;;;;;;;-4.27;82.02;96896.27;107028;1275;22529;-66
2023/02/15 23:50:24;;;;;;;22.50;9.70;;;;;;;-4.22;81.00;96894.99;106713;1275;22536;-66
2023/02/15 23:52:54;;;;;;;18.60;8.50;;;;;;;-4.28;81.32;96893.09;106739;1275;23883;-66
2023/02/15 23:55:27;;;;;;;17.40;8.60;;;;;;;-4.32;81.21;96895.56;106680;1275;24276;-67
2023/02/15 23:57:55;;;;;;;19.50;8.60;;;;;;;-4.27;81.84;96893.48;106763;1275;22660;-66
